Latest Weather Observations for Omeo

IDV60801

Issued at 11:02 pm EDT Thursday 21 October 2021 (issued every 10 minutes, with the page automatically refreshed every 10 minutes)

About weather observations | Map of weather stations | Latest weather observations for VIC | Other Formats
Station Details ID: 083090 Name: OMEO Lat: -37.10 Lon: 147.60 Height: 689.8 m
Data from the previous 72 hours. | See also: Recent months at Omeo
Date/Time
EDT
Temp
°C
App
Temp
°C
Dew
Point
°C
Rel
Hum
%
Delta-T
°C
Wind Press
QNH
hPa
Press
MSL
hPa
Rain since
9am
mm
Dir  Spd
km/h
Gust
km/h
Spd
kts
Gust
kts
21/11:00pm 11.9 11.8 9.3 84 1.4 CALM 0 0 0 0 1017.7 1016.9 0.2
21/10:30pm 12.1 11.5 9.1 82 1.6 SSE 2 7 1 4 1017.6 1016.8 0.2
21/10:00pm 12.0 11.5 9.2 83 1.5 SSE 2 7 1 4 1017.5 1016.7 0.2
21/09:30pm 12.5 11.8 8.4 76 2.1 SSW 2 7 1 4 1017.4 1016.6 0.2
21/09:00pm 12.8 12.1 8.7 76 2.1 SSW 2 7 1 4 1017.1 1016.3 0.2
21/08:30pm 13.5 11.8 8.4 71 2.6 SSW 7 11 4 6 1016.8 1016.0 0.2
21/08:00pm 14.6 13.0 8.1 65 3.4 SSW 6 11 3 6 1016.6 1015.8 0.2
21/07:30pm 15.5 14.9 7.5 59 4.1 CALM 0 6 0 3 1016.0 1015.2 0.2
21/07:00pm 17.0 16.6 8.4 57 4.6 CALM 0 0 0 0 1015.9 1015.1 0.2
21/06:30pm 18.0 16.6 9.4 57 4.7 SE 7 11 4 6 1015.6 1014.8 0.2
21/06:00pm 17.9 15.9 8.7 55 4.9 SE 9 15 5 8 1015.4 1014.6 0.2
21/05:30pm 18.7 16.6 8.1 50 5.6 SE 9 15 5 8 1015.2 1014.3 0.2
21/05:00pm 19.5 17.2 7.6 46 6.3 SSE 9 15 5 8 1015.1 1014.2 0.2
21/04:30pm 20.3 18.3 7.3 43 6.9 SSE 7 11 4 6 1015.1 1014.2 0.2
21/04:00pm 20.5 18.4 8.2 45 6.6 ESE 9 13 5 7 1015.2 1014.3 0.2
21/03:30pm 20.4 18.4 7.1 42 7.0 SE 7 11 4 6 1015.5 1014.7 0.2
21/03:00pm 19.4 17.3 5.8 41 7.0 ESE 6 11 3 6 1015.8 1015.0 0.2
21/02:30pm 19.1 18.0 5.2 40 7.0 CALM 0 6 0 3 1016.0 1015.2 0.2
21/02:00pm 18.7 16.9 3.7 37 7.3 NNW 2 7 1 4 1016.3 1015.5 0.2
21/01:30pm 18.5 16.5 8.7 53 5.3 N 9 13 5 7 1016.6 1015.8 0.2
21/01:00pm 18.4 15.5 6.3 45 6.2 NNW 11 15 6 8 1016.9 1016.1 0.2
21/12:30pm 18.1 15.7 6.9 48 5.8 N 9 13 5 7 1017.3 1016.5 0.2
21/12:00pm 18.1 16.1 7.2 49 5.7 NNE 7 13 4 7 1017.4 1016.6 0.2
21/11:30am 17.2 15.1 9.9 62 4.0 N 11 15 6 8 1017.9 1017.2 0.2
21/11:00am 16.4 14.0 10.0 66 3.5 N 13 17 7 9 1018.3 1017.5 0.0
21/10:30am 14.4 11.9 9.6 73 2.6 NNE 13 19 7 10 1018.6 1017.8 0.0
21/10:00am 12.7 10.9 9.3 80 1.8 NNE 9 15 5 8 1018.8 1018.0 0.0
21/09:30am 11.0 9.2 10.7 98 0.2 N 11 15 6 8 1018.9 1018.1 0.0
21/09:00am 8.0 5.5 8.0 100 0.0 NNW 11 15 6 8 1019.2 1018.5 0.0
21/08:30am 6.6 4.5 6.5 99 0.0 N 7 11 4 6 1019.3 1018.6 0.0
21/08:00am 6.0 3.9 5.9 99 0.0 NW 6 9 3 5 1019.2 1018.5 0.0
21/07:30am 5.1 3.6 5.0 99 0.0 WNW 2 7 1 4 1019.1 1018.4 0.0
21/07:00am 4.8 3.2 4.7 99 0.0 NNW 2 9 1 5 1019.1 1018.4 0.0
21/06:30am 4.5 3.3 4.4 99 0.0 CALM 0 6 0 3 1018.9 1018.1 0.0
21/06:00am 4.3 3.0 4.2 99 0.0 CALM 0 0 0 0 1018.5 1017.7 0.0
21/05:30am 4.2 2.9 4.1 99 0.0 CALM 0 0 0 0 1018.4 1017.6 0.0
21/05:00am 4.4 3.1 4.3 99 0.0 CALM 0 0 0 0 1018.6 1017.8 0.0
21/04:30am 4.2 2.9 4.1 99 0.0 CALM 0 0 0 0 1018.4 1017.6 0.0
21/04:00am 4.1 2.8 4.0 99 0.0 CALM 0 0 0 0 1018.3 1017.5 0.0
21/03:30am 4.3 3.0 4.2 99 0.0 CALM 0 0 0 0 1018.4 1017.6 0.0
21/03:00am 4.7 3.5 4.6 99 0.0 CALM 0 0 0 0 1018.6 1017.8 0.0
21/02:30am 5.4 4.0 5.3 99 0.0 SSE 2 7 1 4 1018.9 1018.1 0.0
21/02:00am 5.1 4.0 5.0 99 0.0 CALM 0 6 0 3 1019.4 1018.7 0.0
21/01:30am 6.0 3.7 5.9 99 0.0 SSE 7 7 4 4 1019.8 1019.0 0.0
21/01:00am 6.1 5.2 6.0 99 0.0 CALM 0 0 0 0 1020.2 1019.4 0.0
21/12:30am 7.1 6.4 7.0 99 0.0 CALM 0 0 0 0 1020.4 1019.7 0.0
21/12:00am 7.5 6.9 7.4 99 0.0 CALM 0 0 0 0 1020.7 1020.0 0.0
 
Date/Time
EDT
Temp
°C
App
Temp
°C
Dew
Point
°C
Rel
Hum
%
Delta-T
°C
Wind Press
QNH
hPa
Press
MSL
hPa
Rain since
9am
mm
Dir  Spd
km/h
Gust
km/h
Spd
kts
Gust
kts
20/11:30pm 7.6 7.0 7.3 98 0.1 CALM 0 0 0 0 1020.9 1020.2 0.0
20/11:00pm 8.6 7.5 8.3 98 0.1 SW 4 7 2 4 1021.3 1020.5 0.0
20/10:30pm 8.9 8.6 8.5 97 0.2 CALM 0 0 0 0 1021.2 1020.4 0.0
20/10:00pm 9.5 9.2 8.7 95 0.4 CALM 0 0 0 0 1021.0 1020.3 0.0
20/09:30pm 10.5 9.3 9.6 94 0.5 SSE 6 11 3 6 1020.8 1020.1 0.0
20/09:00pm 10.4 8.8 8.8 90 0.8 SSE 7 11 4 6 1020.6 1019.9 0.0
20/08:30pm 11.3 10.1 9.6 89 0.9 SSE 6 11 3 6 1020.2 1019.4 0.0
20/08:00pm 11.7 10.4 9.3 85 1.2 S 6 9 3 5 1019.8 1019.0 0.0
20/07:30pm 12.6 10.8 9.6 82 1.6 SW 9 13 5 7 1019.5 1018.8 0.0
20/07:00pm 14.1 10.8 9.7 75 2.3 SE 17 24 9 13 1019.1 1018.4 0.0
20/06:30pm 15.7 12.7 9.4 66 3.4 SE 15 24 8 13 1019.2 1018.5 0.0
20/06:00pm 16.6 13.6 9.1 61 4.0 SSE 15 24 8 13 1019.0 1018.3 0.0
20/05:30pm 17.2 15.1 9.9 62 4.0 SSE 11 19 6 10 1019.2 1018.5 0.0
20/05:00pm 17.2 14.7 9.6 61 4.1 SE 13 20 7 11 1019.4 1018.7 0.0
20/04:30pm 15.9 13.2 9.1 64 3.6 SE 13 20 7 11 1019.7 1018.9 0.0
20/04:00pm 17.0 14.2 8.7 58 4.4 SE 13 22 7 12 1020.0 1019.2 0.0
20/03:30pm 16.8 14.9 9.2 61 4.1 SSE 9 15 5 8 1020.3 1019.6 0.0
20/03:00pm 15.6 13.0 9.3 66 3.4 SE 13 20 7 11 1020.8 1020.1 0.0
20/02:30pm 15.9 13.7 9.3 65 3.5 SE 11 20 6 11 1021.0 1020.3 0.0
20/02:00pm 15.3 13.5 7.8 61 3.9 SE 7 15 4 8 1021.2 1020.4 0.0
20/01:30pm 15.8 14.1 9.7 67 3.3 SE 9 20 5 11 1021.5 1020.7 0.0
20/01:00pm 14.3 10.9 7.8 65 3.3 SE 15 24 8 13 1021.9 1021.2 0.0
20/12:30pm 14.0 11.9 9.6 75 2.3 SSE 11 20 6 11 1022.2 1021.5 0.0
20/12:00pm 14.0 12.1 10.4 79 1.9 SSE 11 19 6 10 1022.9 1022.2 0.0
20/11:30am 12.8 10.2 9.3 79 1.8 SE 13 22 7 12 1023.4 1022.7 0.0
20/11:00am 12.3 9.4 8.2 76 2.1 SE 13 20 7 11 1023.7 1023.0 0.0
20/10:30am 11.8 9.0 8.5 80 1.7 SSE 13 20 7 11 1023.7 1023.0 0.0
20/10:00am 11.2 8.4 8.4 83 1.4 SSE 13 24 7 13 1023.8 1023.1 0.0
20/09:30am 10.5 7.6 8.1 85 1.2 SE 13 22 7 12 1023.7 1023.0 0.0
20/09:00am 10.0 7.5 8.3 89 0.9 SSE 11 28 6 15 1024.0 1023.4 6.0
20/08:30am 10.2 7.1 8.8 91 0.7 SSE 15 24 8 13 1023.7 1023.0 6.0
20/08:00am 9.2 6.0 8.6 96 0.3 SSE 15 30 8 16 1023.7 1023.0 6.0
20/07:30am 9.0 5.5 8.9 99 0.1 SSE 17 32 9 17 1023.4 1022.7 6.0
20/07:00am 8.8 5.7 8.7 99 0.1 SSE 15 28 8 15 1023.3 1022.6 6.0
20/06:30am 8.7 5.5 8.6 99 0.1 SSE 15 22 8 12 1023.3 1022.6 6.0
20/06:00am 8.8 6.0 8.7 99 0.1 SSE 13 20 7 11 1023.2 1022.5 5.6
20/05:30am 8.8 6.4 8.7 99 0.1 SSE 11 20 6 11 1022.9 1022.2 5.2
20/05:00am 8.7 7.0 8.4 98 0.1 S 7 11 4 6 1022.6 1021.9 4.8
20/04:30am 8.8 5.6 8.4 97 0.2 SSE 15 30 8 16 1022.9 1022.2 4.8
20/04:00am 8.7 5.2 8.6 99 0.1 SSE 17 30 9 16 1022.5 1021.8 4.8
20/03:30am 8.8 6.0 8.7 99 0.1 SSE 13 32 7 17 1022.6 1021.9 4.8
20/03:00am 8.4 6.6 8.1 98 0.1 SSW 7 11 4 6 1022.8 1022.0 4.2
20/02:30am 8.3 6.5 7.9 97 0.2 SSW 7 15 4 8 1022.9 1022.2 3.8
20/02:00am 8.5 6.4 8.2 98 0.1 SSW 9 17 5 9 1023.1 1022.4 3.8
20/01:30am 8.6 6.1 8.2 97 0.2 SSW 11 26 6 14 1023.3 1022.6 3.8
20/01:00am 8.5 6.4 8.4 99 0.0 S 9 19 5 10 1023.3 1022.6 3.8
20/12:30am 8.5 6.0 8.4 99 0.1 S 11 20 6 11 1023.1 1022.4 3.8
20/12:00am 8.3 6.2 8.2 99 0.0 SSE 9 17 5 9 1023.1 1022.4 3.6
 
Date/Time
EDT
Temp
°C
App
Temp
°C
Dew
Point
°C
Rel
Hum
%
Delta-T
°C
Wind Press
QNH
hPa
Press
MSL
hPa
Rain since
9am
mm
Dir  Spd
km/h
Gust
km/h
Spd
kts
Gust
kts
19/11:30pm 7.8 6.1 7.7 99 0.0 SSW 6 11 3 6 1023.0 1022.3 3.6
19/11:00pm 7.7 6.6 7.1 96 0.3 S 2 7 1 4 1023.1 1022.4 3.2
19/10:30pm 8.0 6.5 6.8 92 0.6 S 4 7 2 4 1023.5 1022.8 3.0
19/10:00pm 8.1 6.0 5.9 86 1.0 S 6 9 3 5 1023.5 1022.8 3.0
19/09:30pm 8.0 5.9 6.0 87 0.9 SSE 6 9 3 5 1023.3 1022.6 3.0
19/09:00pm 7.8 5.5 5.8 87 0.9 SSE 7 11 4 6 1023.3 1022.6 3.0
19/08:30pm 7.1 5.2 4.8 85 1.1 S 4 9 2 5 1022.9 1022.2 3.0
19/08:00pm 6.8 4.4 4.1 83 1.2 S 6 9 3 5 1022.6 1021.9 3.0
19/07:30pm 7.9 5.6 4.7 80 1.5 S 6 9 3 5 1022.4 1021.7 3.0
19/07:00pm 9.1 5.3 5.8 80 1.6 SE 15 22 8 12 1022.1 1021.4 3.0
19/06:30pm 10.3 6.8 7.2 81 1.5 SE 15 24 8 13 1021.7 1021.0 3.0
19/06:00pm 11.0 7.5 7.1 77 1.9 SSE 15 22 8 12 1021.5 1020.7 3.0
19/05:30pm 11.2 8.4 7.1 76 2.0 SE 11 15 6 8 1021.3 1020.5 3.0
19/05:00pm 9.8 6.7 7.2 84 1.3 SSE 13 19 7 10 1021.0 1020.3 3.0
19/04:30pm 9.6 6.9 7.2 85 1.2 SSE 11 17 6 9 1020.8 1020.1 3.0
19/04:00pm 8.2 3.7 6.0 86 1.0 SSE 19 37 10 20 1020.8 1020.1 3.0
19/03:50pm 9.5 5.1 4.9 73 2.1 SE 17 37 9 20 1020.7 1020.0 1.6
19/03:30pm 11.8 9.2 7.7 76 2.1 ESE 11 17 6 9 1020.7 1020.0 1.6
19/03:00pm 9.1 7.2 7.4 89 0.8 S 7 11 4 6 1021.0 1020.3 1.6
19/02:30pm 9.6 5.5 6.1 79 1.7 SSE 17 28 9 15 1020.7 1020.0 0.4
19/02:00pm 10.9 8.0 6.3 73 2.2 SE 11 19 6 10 1020.4 1019.7 0.4
19/01:30pm 10.5 8.0 6.6 77 1.9 SE 9 17 5 9 1020.5 1019.8 0.4
19/01:00pm 10.8 8.3 6.4 74 2.1 S 9 19 5 10 1020.3 1019.6 0.4
19/12:30pm 9.6 6.0 5.0 73 2.2 SSW 13 28 7 15 1020.3 1019.6 0.0
19/12:00pm 10.9 8.0 4.4 64 3.0 SSW 9 17 5 9 1020.2 1019.4 0.0
19/11:30am 10.2 6.4 4.1 66 2.8 SW 13 24 7 13 1020.5 1019.8 0.0
19/11:00am 9.6 6.3 4.6 71 2.3 S 11 20 6 11 1020.5 1019.8 0.0
19/10:30am 9.5 6.6 4.7 72 2.2 SSW 9 19 5 10 1020.6 1019.9 0.0
19/10:00am 7.8 4.8 4.0 77 1.7 SW 9 17 5 9 1020.6 1019.9 0.0
19/09:30am 7.6 5.1 4.6 81 1.4 SW 7 13 4 7 1020.4 1019.7 0.0
19/09:00am 7.4 5.1 4.9 84 1.1 SW 6 11 3 6 1020.1 1019.3 10.8
19/08:30am 6.9 4.4 4.0 82 1.3 SW 6 11 3 6 1019.7 1018.9 10.8
19/08:00am 6.4 4.2 6.1 98 0.1 SSW 7 13 4 7 1019.3 1018.6 10.8
19/07:30am 5.9 4.6 5.8 99 0.0 SSW 2 9 1 5 1019.0 1018.3 10.8
19/07:00am 5.8 4.1 5.7 99 0.0 S 4 9 2 5 1018.5 1017.7 10.8
19/06:30am 5.6 3.8 5.5 99 0.0 SSW 4 9 2 5 1017.9 1017.2 10.4
19/06:00am 5.5 3.3 5.4 99 0.0 SW 6 9 3 5 1017.7 1016.9 10.4
19/05:30am 5.5 3.3 5.4 99 0.0 S 6 9 3 5 1017.6 1016.8 10.4
19/05:00am 5.5 2.4 5.4 99 0.0 SSE 11 20 6 11 1017.4 1016.6 10.2
19/04:30am 5.7 2.6 5.6 99 0.0 SE 11 19 6 10 1017.2 1016.4 9.2
19/04:00am 5.9 4.9 5.8 99 0.0 CALM 0 6 0 3 1017.1 1016.3 8.4
19/03:30am 5.9 3.6 5.6 98 0.1 SSW 7 11 4 6 1017.0 1016.2 6.4
19/03:00am 6.2 4.1 5.9 98 0.1 S 6 11 3 6 1016.9 1016.1 3.8
19/02:30am 6.3 4.1 6.0 98 0.1 SSW 7 11 4 6 1016.9 1016.1 3.2
19/02:00am 6.8 4.3 6.5 98 0.1 S 9 22 5 12 1016.9 1016.1 1.0
19/01:30am 6.8 3.9 6.5 98 0.1 SSE 11 20 6 11 1016.6 1015.8 0.4
19/01:00am 6.4 3.7 5.5 94 0.4 S 9 22 5 12 1017.1 1016.3 0.4
19/12:30am 7.4 4.1 6.2 92 0.6 S 13 30 7 16 1017.2 1016.4 0.0
19/12:00am 8.3 4.5 7.5 95 0.4 SE 17 33 9 18 1016.6 1015.8 0.0
 
Date/Time
EDT
Temp
°C
App
Temp
°C
Dew
Point
°C
Rel
Hum
%
Delta-T
°C
Wind Press
QNH
hPa
Press
MSL
hPa
Rain since
9am
mm
Dir  Spd
km/h
Gust
km/h
Spd
kts
Gust
kts
18/11:30pm 8.5 4.7 7.4 93 0.5 SE 17 30 9 16 1016.3 1015.5 0.0

Other formats

Comma delimited format used in spreadsheet applications
http://www.bom.gov.au/fwo/IDV60801/IDV60801.94908.axf

JavaScript Object Notation format (JSON) in row-major order
http://www.bom.gov.au/fwo/IDV60801/IDV60801.94908.json

Data quality

Most of these data are generated automatically and are frequently updated. Quality checks on data are not normally performed. It is possible for incorrect values to appear. Refer to information at About Latest Weather Observations and please check the disclaimer before using these data.